Terminal Aerodrome Forecast
Issued by NWS

Home | Current Version | Previous Version | Text Only | Print | Product List | Glossary On
Versions: 1 2 3 4 5 6 7 8 9 10 11 12 13 14
672
FTUS41 KLWX 251736
TAFMTN
TAF
KMTN 251736Z 2518/2618 17014KT P6SM BKN045
     FM252000 22014G22KT 4SM -SHRA VCTS OVC025CB
     FM252100 28015G25KT 4SM -SHRA VCTS OVC025CB WS020/19030KT
     FM252200 29013G20KT 4SM -SHRA VCTS OVC050CB
     FM252300 29012KT P6SM BKN070
     FM260000 29015G25KT P6SM BKN080
     FM260100 29018G35KT P6SM SCT100
     FM260500 29015G27KT P6SM FEW040=

USA.gov is the U.S. government's official web portal to all federal, state and local government web resources and services.